Time;durP1;ratioP1;P1;durP2;ratioP2;P2;SDS_P1;SDS_P2;PMS_P1;PMS_P2;Temp;Humidity;BMP_temperature;BMP_pressure;BME280_temperature;BME280_humidity;BME280_pressure;Samples;Min_cycle;Max_cycle;Signal;HPM_P1;HPM_P2
2022/01/23 00:02:16;;;;;;;13.80;7.03;;;;;;;0.91;100.00;102215.34;4822806;29;20049;-80
2022/01/23 00:04:43;;;;;;;13.90;6.43;;;;;;;0.94;100.00;102211.19;4835198;29;20076;-82
2022/01/23 00:07:12;;;;;;;14.83;7.50;;;;;;;0.97;100.00;102224.31;4830576;29;20045;-80
2022/01/23 00:09:39;;;;;;;12.27;7.07;;;;;;;0.98;100.00;102215.69;4847640;29;20070;-81
2022/01/23 00:12:12;;;;;;;12.53;6.60;;;;;;;1.00;100.00;102219.22;4841923;29;20053;-80
2022/01/23 00:17:25;;;;;;;16.83;7.37;;;;;;;1.03;100.00;102236.72;4832381;29;20050;-81
2022/01/23 00:19:58;;;;;;;15.47;8.70;;;;;;;1.11;100.00;102230.13;4839883;29;20459;-80
2022/01/23 00:22:35;;;;;;;17.30;9.30;;;;;;;1.19;100.00;102222.66;4853689;29;20797;-80
2022/01/23 00:30:34;;;;;;;22.47;10.20;;;;;;;1.20;100.00;102212.31;4842316;29;20042;-81
2022/01/23 00:33:03;;;;;;;17.13;8.73;;;;;;;1.22;100.00;102208.03;4829569;29;20060;-80
2022/01/23 00:35:31;;;;;;;17.03;8.63;;;;;;;1.21;100.00;102195.84;4849261;29;20101;-81
2022/01/23 00:37:58;;;;;;;18.67;8.53;;;;;;;1.24;100.00;102201.19;4828383;29;20052;-82
2022/01/23 00:40:26;;;;;;;18.60;9.90;;;;;;;1.26;100.00;102196.03;4821361;29;20048;-80
2022/01/23 00:42:57;;;;;;;18.80;9.67;;;;;;;1.28;100.00;102191.78;4845023;29;20049;-81
2022/01/23 00:45:31;;;;;;;16.13;9.90;;;;;;;1.31;100.00;102189.31;4833177;29;20053;-83
2022/01/23 00:48:05;;;;;;;22.10;11.18;;;;;;;1.39;100.00;102185.31;4840359;29;20098;-83
2022/01/23 00:50:35;;;;;;;21.00;10.40;;;;;;;1.36;100.00;102195.63;4839292;29;20049;-83
2022/01/23 00:53:03;;;;;;;21.37;10.90;;;;;;;1.36;100.00;102199.09;4858481;29;20057;-81
2022/01/23 00:55:30;;;;;;;21.80;11.93;;;;;;;1.52;100.00;102210.16;4828015;29;20140;-82
2022/01/23 00:57:57;;;;;;;20.00;10.07;;;;;;;1.51;100.00;102218.78;4841070;29;20444;-81
2022/01/23 01:00:23;;;;;;;21.87;10.37;;;;;;;1.49;100.00;102220.44;4842582;29;20041;-81
2022/01/23 01:02:50;;;;;;;25.97;11.93;;;;;;;1.51;100.00;102229.19;4843719;29;20077;-80
2022/01/23 01:05:17;;;;;;;22.53;11.97;;;;;;;1.63;100.00;102241.03;4828685;29;20045;-81
2022/01/23 01:07:44;;;;;;;25.43;12.80;;;;;;;1.71;100.00;102233.53;4836789;29;20098;-81
2022/01/23 01:10:20;;;;;;;21.13;11.40;;;;;;;1.78;100.00;102242.47;4822926;29;20049;-83
2022/01/23 01:12:49;;;;;;;24.57;11.80;;;;;;;1.74;100.00;102236.25;4841512;29;20052;-80
2022/01/23 01:34:07;;;;;;;21.33;10.97;;;;;;;1.74;100.00;102237.97;4857489;29;20045;-80
2022/01/23 01:36:45;;;;;;;21.70;9.43;;;;;;;1.75;100.00;102231.91;4831935;29;20056;-81
2022/01/23 01:39:13;;;;;;;21.07;12.03;;;;;;;1.77;100.00;102230.28;4865126;29;20053;-81
2022/01/23 01:41:42;;;;;;;19.90;10.53;;;;;;;1.80;100.00;102222.56;4833316;29;20049;-80
2022/01/23 01:44:08;;;;;;;23.93;12.57;;;;;;;1.81;100.00;102224.34;4861573;29;20040;-80
2022/01/23 01:46:35;;;;;;;17.53;9.57;;;;;;;1.82;100.00;102224.41;4858410;29;20053;-81
2022/01/23 01:49:03;;;;;;;19.97;10.57;;;;;;;1.86;100.00;102220.22;4844350;29;20053;-80
2022/01/23 01:51:33;;;;;;;18.77;9.50;;;;;;;1.89;100.00;102217.72;4847973;29;20500;-82
2022/01/23 01:54:09;;;;;;;19.10;9.43;;;;;;;1.92;100.00;102220.44;4829500;29;20624;-81
2022/01/23 01:56:49;;;;;;;17.20;8.73;;;;;;;1.94;100.00;102216.22;4826687;29;20427;-81
2022/01/23 02:09:39;;;;;;;16.27;8.43;;;;;;;1.93;100.00;102207.50;4844576;29;20042;-82
2022/01/23 02:53:29;;;;;;;12.90;7.37;;;;;;;2.16;100.00;102229.22;4856041;29;20464;-82
2022/01/23 02:55:57;;;;;;;13.07;7.50;;;;;;;2.21;100.00;102232.03;4852317;29;20061;-80
2022/01/23 02:58:31;;;;;;;14.27;7.57;;;;;;;2.20;100.00;102231.16;4829740;29;20049;-81
2022/01/23 03:01:10;;;;;;;13.95;7.03;;;;;;;2.22;100.00;102224.25;4829824;29;20049;-80
2022/01/23 03:03:42;;;;;;;13.73;7.50;;;;;;;2.30;100.00;102231.50;4858752;29;20053;-83
2022/01/23 03:12:07;;;;;;;15.63;7.60;;;;;;;2.50;100.00;102238.34;4836494;29;20065;-82
2022/01/23 03:14:34;;;;;;;11.63;5.73;;;;;;;2.43;100.00;102250.25;4858763;29;20488;-83
2022/01/23 03:28:27;;;;;;;10.10;5.33;;;;;;;2.45;100.00;102234.69;4843869;29;20057;-81
2022/01/23 03:31:07;;;;;;;9.93;5.70;;;;;;;2.47;100.00;102239.13;4846697;29;20045;-82
2022/01/23 03:33:35;;;;;;;9.70;5.50;;;;;;;2.50;100.00;102241.84;4834326;29;20045;-82
2022/01/23 03:36:03;;;;;;;9.90;5.60;;;;;;;2.44;100.00;102244.25;4836953;29;20074;-83
2022/01/23 03:38:30;;;;;;;10.87;5.30;;;;;;;2.41;100.00;102236.28;4811903;29;20053;-83
2022/01/23 03:40:56;;;;;;;9.67;5.17;;;;;;;2.41;100.00;102235.38;4859593;29;20043;-81
2022/01/23 03:43:29;;;;;;;8.67;5.03;;;;;;;2.40;100.00;102236.22;4826198;29;20049;-81
2022/01/23 03:50:53;;;;;;;7.77;4.50;;;;;;;2.41;100.00;102236.28;4841262;29;20558;-82
2022/01/23 03:53:19;;;;;;;8.17;4.47;;;;;;;2.41;100.00;102238.00;4844355;29;20105;-81
2022/01/23 03:55:48;;;;;;;9.37;4.93;;;;;;;2.41;100.00;102235.38;4835281;29;20052;-82
2022/01/23 03:58:15;;;;;;;8.67;5.17;;;;;;;2.41;100.00;102233.66;4843629;29;20061;-82
2022/01/23 04:00:41;;;;;;;6.93;4.00;;;;;;;2.41;100.00;102236.28;4841858;29;20054;-81
2022/01/23 04:03:08;;;;;;;6.73;4.23;;;;;;;2.38;100.00;102238.78;4826748;29;20045;-82
2022/01/23 04:05:35;;;;;;;6.77;3.77;;;;;;;2.35;100.00;102230.81;4832327;29;20077;-82
2022/01/23 04:08:03;;;;;;;6.13;3.60;;;;;;;2.38;100.00;102240.50;4841872;29;20104;-82
2022/01/23 04:10:30;;;;;;;7.20;4.70;;;;;;;2.33;100.00;102237.69;4827989;29;20053;-82
2022/01/23 04:13:09;;;;;;;7.33;4.10;;;;;;;2.33;100.00;102242.03;4840709;29;20046;-82
2022/01/23 04:15:45;;;;;;;6.87;4.07;;;;;;;2.31;100.00;102249.81;4855097;29;20049;-82
2022/01/23 04:32:14;;;;;;;7.10;4.40;;;;;;;2.37;100.00;102249.16;4835379;29;20567;-82
2022/01/23 04:45:31;;;;;;;7.87;4.40;;;;;;;2.61;100.00;102254.41;4861955;29;20044;-82
2022/01/23 05:02:05;;;;;;;5.57;3.23;;;;;;;2.71;100.00;102261.75;4863546;29;20105;-83
2022/01/23 05:04:34;;;;;;;8.20;4.17;;;;;;;2.75;100.00;102264.50;4828094;29;20041;-82
2022/01/23 05:07:04;;;;;;;5.90;4.00;;;;;;;2.74;100.00;102267.06;4849156;29;20049;-81
2022/01/23 05:09:32;;;;;;;5.03;3.67;;;;;;;2.75;100.00;102274.06;4832958;29;20045;-81
2022/01/23 05:12:05;;;;;;;6.87;4.03;;;;;;;2.72;100.00;102280.06;4844434;29;20045;-83
2022/01/23 05:14:43;;;;;;;8.90;4.70;;;;;;;2.75;100.00;102284.50;4837606;29;20519;-82
2022/01/23 05:17:13;;;;;;;7.43;3.53;;;;;;;2.75;100.00;102287.13;4829537;29;20571;-83
2022/01/23 05:19:40;;;;;;;7.87;3.60;;;;;;;2.75;100.00;102289.72;4818949;29;20546;-81
2022/01/23 05:22:22;;;;;;;6.13;3.73;;;;;;;2.76;100.00;102295.00;4841742;29;20052;-83
2022/01/23 05:24:54;;;;;;;8.23;4.13;;;;;;;2.78;100.00;102305.53;4847722;29;20048;-83
2022/01/23 05:27:27;;;;;;;6.37;3.23;;;;;;;2.79;100.00;102308.19;4847291;29;20045;-82
2022/01/23 05:29:55;;;;;;;9.27;4.13;;;;;;;2.82;100.00;102303.06;4847097;29;20060;-83
2022/01/23 05:32:27;;;;;;;6.40;3.20;;;;;;;2.83;100.00;102303.94;4831235;29;20464;-81
2022/01/23 05:34:55;;;;;;;6.07;3.93;;;;;;;2.80;100.00;102304.75;4829989;29;20066;-82
2022/01/23 05:37:22;;;;;;;5.20;3.37;;;;;;;2.80;100.00;102304.75;4842941;29;20041;-83
2022/01/23 05:39:48;;;;;;;5.43;3.30;;;;;;;2.80;100.00;102298.63;4845382;29;20081;-82
2022/01/23 05:42:15;;;;;;;5.67;3.00;;;;;;;2.79;100.00;102302.06;4853793;29;20499;-83
2022/01/23 05:44:42;;;;;;;4.10;2.77;;;;;;;2.72;100.00;102302.66;4850416;29;20052;-82
2022/01/23 05:47:11;;;;;;;4.60;2.90;;;;;;;2.68;100.00;102295.53;4842401;29;20412;-82
2022/01/23 05:49:37;;;;;;;5.10;3.27;;;;;;;2.66;100.00;102292.88;4835468;29;20057;-83
2022/01/23 05:52:05;;;;;;;5.37;3.20;;;;;;;2.65;100.00;102293.72;4845269;29;20313;-83
2022/01/23 05:54:32;;;;;;;6.40;3.40;;;;;;;2.70;100.00;102297.41;4829728;29;20097;-84
2022/01/23 05:56:59;;;;;;;6.03;3.47;;;;;;;2.68;100.00;102304.25;4831529;29;20049;-83
2022/01/23 05:59:26;;;;;;;5.70;3.40;;;;;;;2.73;100.00;102309.66;4831977;29;20056;-85
2022/01/23 06:01:55;;;;;;;5.47;3.30;;;;;;;2.88;100.00;102311.97;4858538;29;20048;-83
2022/01/23 06:04:24;;;;;;;5.70;3.27;;;;;;;2.80;100.00;102309.97;4843562;29;20044;-83
2022/01/23 06:06:51;;;;;;;5.13;3.63;;;;;;;2.80;100.00;102306.47;4860272;29;20037;-83
2022/01/23 06:09:20;;;;;;;5.80;3.40;;;;;;;2.85;100.00;102309.22;4845839;29;20101;-83
2022/01/23 06:11:47;;;;;;;5.00;2.90;;;;;;;2.81;100.00;102311.72;4842547;29;20105;-83
2022/01/23 06:14:13;;;;;;;5.40;3.23;;;;;;;2.81;100.00;102319.56;4859494;29;20086;-83
2022/01/23 06:16:43;;;;;;;6.07;3.07;;;;;;;2.81;100.00;102321.28;4844386;29;20045;-82
2022/01/23 06:19:10;;;;;;;5.50;3.57;;;;;;;2.82;100.00;102323.94;4829315;29;20479;-84
2022/01/23 06:21:36;;;;;;;6.90;3.77;;;;;;;2.83;100.00;102325.72;4827353;29;20465;-85
2022/01/23 06:24:07;;;;;;;5.53;3.30;;;;;;;2.83;100.00;102317.88;4847075;29;20117;-84
2022/01/23 06:26:47;;;;;;;4.53;2.80;;;;;;;2.83;100.00;102324.84;4859002;29;20637;-84
2022/01/23 06:29:15;;;;;;;5.60;3.03;;;;;;;2.85;100.00;102327.50;4854174;29;20530;-83
2022/01/23 06:31:43;;;;;;;5.37;2.93;;;;;;;2.87;100.00;102321.53;4840381;29;20055;-82
2022/01/23 06:34:10;;;;;;;6.07;3.03;;;;;;;2.87;100.00;102323.25;4862142;29;20101;-83
2022/01/23 06:36:37;;;;;;;5.33;3.07;;;;;;;2.84;100.00;102331.81;4830573;29;20093;-83
2022/01/23 06:39:07;;;;;;;5.37;3.47;;;;;;;2.85;100.00;102327.50;4832343;29;20045;-82
2022/01/23 06:41:34;;;;;;;4.63;2.77;;;;;;;2.85;100.00;102332.72;4845346;29;20499;-84
2022/01/23 06:44:02;;;;;;;5.13;3.00;;;;;;;2.83;100.00;102332.66;4858163;29;20060;-83
2022/01/23 06:46:31;;;;;;;4.33;2.70;;;;;;;2.85;100.00;102335.31;4844122;29;20044;-82
2022/01/23 06:48:58;;;;;;;3.87;2.90;;;;;;;2.85;100.00;102336.22;4837567;29;20580;-84
2022/01/23 06:51:25;;;;;;;5.50;2.77;;;;;;;2.85;100.00;102337.94;4826482;29;20049;-83
2022/01/23 06:53:52;;;;;;;6.40;3.40;;;;;;;2.86;100.00;102343.25;4853528;29;20456;-84
2022/01/23 06:56:19;;;;;;;5.90;3.13;;;;;;;2.93;100.00;102341.72;4827414;29;20050;-83
2022/01/23 06:58:45;;;;;;;5.53;3.13;;;;;;;2.96;100.00;102344.47;4828243;29;20050;-83
2022/01/23 07:01:12;;;;;;;5.63;3.70;;;;;;;2.95;100.00;102351.41;4830802;29;20073;-84
2022/01/23 07:03:39;;;;;;;6.50;3.77;;;;;;;2.93;100.00;102352.16;4845077;29;20052;-83
2022/01/23 07:06:06;;;;;;;7.03;3.47;;;;;;;2.94;100.00;102353.94;4860076;29;20456;-84
2022/01/23 07:08:44;;;;;;;8.90;4.47;;;;;;;2.98;100.00;102361.06;4861898;29;20045;-82
2022/01/23 07:11:11;;;;;;;4.77;3.13;;;;;;;3.03;100.00;102365.66;4841012;29;20810;-83
2022/01/23 07:13:38;;;;;;;5.50;3.27;;;;;;;3.02;100.00;102365.56;4846432;29;20049;-83
2022/01/23 07:16:06;;;;;;;4.57;2.80;;;;;;;2.98;100.00;102361.06;4832191;29;20049;-82
2022/01/23 07:18:33;;;;;;;4.17;2.93;;;;;;;2.94;100.00;102367.00;4852231;29;20136;-82
2022/01/23 07:21:00;;;;;;;4.93;3.20;;;;;;;2.90;100.00;102372.94;4819969;29;20049;-81
2022/01/23 07:23:26;;;;;;;5.13;3.20;;;;;;;2.97;100.00;102380.19;4856403;29;20057;-83
2022/01/23 07:25:53;;;;;;;5.40;3.80;;;;;;;2.99;100.00;102383.75;4923365;23;20052;-82
2022/01/23 07:28:23;;;;;;;5.67;3.57;;;;;;;2.92;100.00;102385.22;4863954;29;20048;-80
2022/01/23 07:30:58;;;;;;;4.93;3.13;;;;;;;3.05;100.00;102394.44;4839243;29;20044;-81
2022/01/23 07:33:25;;;;;;;3.30;2.13;;;;;;;3.00;100.00;102389.00;4863238;29;20105;-83
2022/01/23 07:35:51;;;;;;;3.37;2.17;;;;;;;2.99;100.00;102386.34;4847084;29;20061;-81
2022/01/23 07:38:18;;;;;;;3.53;2.47;;;;;;;2.94;100.00;102385.28;4846798;29;20093;-83
2022/01/23 07:40:48;;;;;;;3.37;2.00;;;;;;;3.00;100.00;102388.13;4848629;29;20049;-84
2022/01/23 07:43:15;;;;;;;4.20;2.60;;;;;;;2.96;100.00;102383.63;4859232;29;20512;-82
2022/01/23 07:45:43;;;;;;;3.13;2.10;;;;;;;2.92;100.00;102385.22;4834436;29;20541;-81
2022/01/23 07:48:10;;;;;;;3.77;2.40;;;;;;;2.94;100.00;102391.38;4845589;29;20049;-83
2022/01/23 07:50:37;;;;;;;3.57;2.27;;;;;;;2.96;100.00;102387.13;4861263;29;20053;-82
2022/01/23 07:53:04;;;;;;;5.17;2.70;;;;;;;3.00;100.00;102385.50;4855132;29;20578;-81
2022/01/23 07:55:32;;;;;;;3.37;2.70;;;;;;;3.03;100.00;102390.88;4846141;29;20455;-83
2022/01/23 07:58:12;;;;;;;4.47;2.53;;;;;;;3.08;100.00;102389.31;4860920;29;20056;-83
2022/01/23 08:00:41;;;;;;;3.57;2.30;;;;;;;3.10;100.00;102395.47;4845970;29;21636;-79
2022/01/23 08:03:08;;;;;;;3.90;2.70;;;;;;;3.10;100.00;102395.47;4874550;29;20040;-80
2022/01/23 08:05:37;;;;;;;3.80;2.33;;;;;;;3.12;100.00;102396.44;4865912;29;20112;-80
2022/01/23 08:08:04;;;;;;;4.17;2.43;;;;;;;3.14;100.00;102401.72;4853328;29;20045;-79
2022/01/23 08:10:30;;;;;;;3.27;2.00;;;;;;;3.14;100.00;102400.00;4859399;29;20072;-80
2022/01/23 08:12:57;;;;;;;3.70;2.27;;;;;;;3.18;100.00;102411.44;4875028;29;20105;-80
2022/01/23 08:15:24;;;;;;;2.80;2.00;;;;;;;3.19;100.00;102414.09;4865280;29;20048;-79
2022/01/23 08:17:51;;;;;;;3.83;2.83;;;;;;;3.19;100.00;102418.44;4860284;29;20048;-80
2022/01/23 08:20:18;;;;;;;3.40;2.60;;;;;;;3.21;100.00;102422.00;4858787;29;20044;-80
2022/01/23 08:22:44;;;;;;;5.30;3.67;;;;;;;3.22;100.00;102424.69;4880823;29;20078;-80
2022/01/23 08:25:14;;;;;;;14.33;7.50;;;;;;;3.24;100.00;102422.13;4847970;29;20109;-80
2022/01/23 08:27:40;;;;;;;7.50;3.63;;;;;;;3.25;100.00;102430.00;4872171;29;20049;-79
2022/01/23 08:30:07;;;;;;;7.43;3.80;;;;;;;3.28;100.00;102424.91;4866469;29;20106;-79
2022/01/23 08:32:34;;;;;;;5.67;3.10;;;;;;;3.32;100.00;102420.69;4845312;29;20117;-80
2022/01/23 08:35:01;;;;;;;3.77;2.60;;;;;;;3.33;100.00;102420.72;4855261;29;20088;-80
2022/01/23 08:37:28;;;;;;;4.27;2.83;;;;;;;3.36;100.00;102428.69;4851651;29;20048;-81
2022/01/23 08:39:54;;;;;;;9.00;4.97;;;;;;;3.38;100.00;102436.59;4837695;29;20050;-80
2022/01/23 08:42:21;;;;;;;9.43;5.77;;;;;;;3.39;100.00;102426.19;4835053;29;20068;-80
2022/01/23 08:44:49;;;;;;;7.47;4.90;;;;;;;3.42;100.00;102425.41;4828319;29;20053;-80
2022/01/23 08:47:16;;;;;;;18.20;9.37;;;;;;;3.43;100.00;102444.59;4864701;29;20052;-80
2022/01/23 08:49:47;;;;;;;11.13;5.93;;;;;;;3.44;100.00;102446.34;4852028;29;20049;-81
2022/01/23 08:52:17;;;;;;;7.00;4.23;;;;;;;3.47;100.00;102442.16;4854701;29;20053;-81
2022/01/23 08:54:50;;;;;;;7.87;4.03;;;;;;;3.48;100.00;102450.88;4833781;29;20435;-81
2022/01/23 08:57:18;;;;;;;5.00;2.90;;;;;;;3.51;100.00;102443.16;4846750;29;20061;-81
2022/01/23 08:59:45;;;;;;;6.27;3.53;;;;;;;3.59;100.00;102442.59;4833017;29;20423;-84
2022/01/23 09:02:12;;;;;;;5.80;3.47;;;;;;;3.60;100.00;102449.59;4826017;29;20503;-81
2022/01/23 09:04:39;;;;;;;5.47;3.80;;;;;;;3.61;100.00;102460.94;4843830;29;20475;-81
2022/01/23 09:07:06;;;;;;;4.47;3.20;;;;;;;3.61;100.00;102453.97;4839070;29;20085;-80
2022/01/23 09:09:37;;;;;;;5.50;3.47;;;;;;;3.61;100.00;102450.47;4870158;29;20048;-80
2022/01/23 09:14:42;;;;;;;5.33;3.43;;;;;;;3.66;100.00;102468.13;4836976;29;20468;-81
2022/01/23 09:17:09;;;;;;;4.87;3.53;;;;;;;3.65;100.00;102475.91;4859723;29;20052;-81
2022/01/23 09:19:36;;;;;;;3.90;3.17;;;;;;;3.64;100.00;102467.19;4869314;29;20051;-81
2022/01/23 09:22:03;;;;;;;4.83;3.33;;;;;;;3.64;100.00;102477.63;4837130;29;20040;-81
2022/01/23 09:24:30;;;;;;;5.77;3.27;;;;;;;3.68;100.00;102473.41;4837187;29;20054;-82
2022/01/23 09:27:03;;;;;;;4.73;3.37;;;;;;;3.66;100.00;102469.84;4852637;29;20053;-82
2022/01/23 09:29:36;;;;;;;5.57;3.73;;;;;;;3.67;100.00;102466.41;4870234;29;20182;-82
2022/01/23 09:32:05;;;;;;;7.13;4.93;;;;;;;3.71;100.00;102468.31;4866808;29;20048;-81
2022/01/23 09:34:33;;;;;;;10.53;7.17;;;;;;;3.74;100.00;102473.63;4869343;29;20079;-82
2022/01/23 09:37:03;;;;;;;8.40;6.17;;;;;;;3.77;100.00;102475.47;4830794;29;20037;-81
2022/01/23 09:39:31;;;;;;;6.70;4.33;;;;;;;3.77;100.00;102473.72;4817562;29;20056;-81
2022/01/23 09:42:21;;;;;;;6.43;4.20;;;;;;;3.79;100.00;102471.19;4830277;29;20053;-81
2022/01/23 09:44:57;;;;;;;5.60;3.63;;;;;;;3.80;100.00;102479.09;4842402;29;20053;-81
2022/01/23 09:47:25;;;;;;;5.43;3.83;;;;;;;3.80;100.00;102472.97;4833580;29;20055;-82
2022/01/23 09:49:53;;;;;;;5.80;3.47;;;;;;;3.85;100.00;102481.84;4850163;29;20510;-80
2022/01/23 09:52:24;;;;;;;5.90;4.20;;;;;;;3.87;100.00;102486.31;4826401;29;20046;-82
2022/01/23 09:55:00;;;;;;;6.63;3.77;;;;;;;3.87;100.00;102481.09;4832239;29;20142;-82
2022/01/23 09:57:30;;;;;;;5.40;3.50;;;;;;;3.92;100.00;102474.28;4830398;29;20041;-81
2022/01/23 09:59:58;;;;;;;6.83;4.00;;;;;;;3.97;100.00;102473.56;4845321;29;20105;-82
2022/01/23 10:02:25;;;;;;;5.03;3.30;;;;;;;4.00;100.00;102466.72;4830643;29;20052;-81
2022/01/23 10:04:55;;;;;;;6.30;3.90;;;;;;;4.01;100.00;102468.50;4838554;29;20312;-82
2022/01/23 10:07:22;;;;;;;6.23;4.43;;;;;;;4.04;100.00;102478.19;4841920;29;20062;-82
2022/01/23 10:09:56;;;;;;;5.67;3.77;;;;;;;4.05;100.00;102475.63;4847828;29;20045;-81
2022/01/23 10:12:26;;;;;;;6.15;3.85;;;;;;;4.11;100.00;102469.69;4835568;29;20045;-81
2022/01/23 10:14:54;;;;;;;6.10;3.83;;;;;;;4.13;100.00;102475.91;4862357;29;20227;-81
2022/01/23 10:17:21;;;;;;;7.13;4.40;;;;;;;4.17;100.00;102470.81;4845421;29;20128;-82
2022/01/23 10:19:48;;;;;;;6.60;3.70;;;;;;;4.19;100.00;102468.25;4832025;29;20101;-80
2022/01/23 10:22:15;;;;;;;6.40;3.83;;;;;;;4.24;100.00;102470.19;4850823;29;20072;-80
2022/01/23 10:24:42;;;;;;;7.17;3.67;;;;;;;4.28;100.00;102468.56;4861843;29;20517;-80
2022/01/23 10:27:09;;;;;;;5.27;2.97;;;;;;;4.34;100.00;102470.50;4831560;29;20070;-80
2022/01/23 10:29:38;;;;;;;4.73;2.97;;;;;;;4.39;100.00;102474.19;4857077;29;20502;-80
2022/01/23 10:32:12;;;;;;;7.43;4.17;;;;;;;4.42;100.00;102469.03;4852347;29;20548;-80
2022/01/23 10:34:44;;;;;;;5.38;3.53;;;;;;;4.40;100.00;102460.25;4834180;29;20057;-79
2022/01/23 10:37:13;;;;;;;6.97;4.23;;;;;;;4.45;100.00;102462.16;4850666;29;20049;-80
2022/01/23 10:39:42;;;;;;;6.33;3.43;;;;;;;4.46;100.00;102458.72;4848538;29;20089;-80
2022/01/23 10:42:53;;;;;;;6.23;3.23;;;;;;;4.48;100.00;102464.00;4864239;29;20092;-80
2022/01/23 10:51:16;;;;;;;7.03;3.80;;;;;;;4.54;100.00;102464.22;4852115;29;20045;-80
2022/01/23 10:53:55;;;;;;;5.97;3.00;;;;;;;4.55;100.00;102473.84;4862951;29;20045;-80
2022/01/23 10:56:22;;;;;;;6.50;3.40;;;;;;;4.59;100.00;102483.56;4864543;29;20531;-80
2022/01/23 10:59:01;;;;;;;6.70;4.27;;;;;;;4.59;100.00;102478.34;4846319;29;20772;-80
2022/01/23 11:01:28;;;;;;;7.73;3.90;;;;;;;4.60;100.00;102472.25;4865534;29;20053;-80
2022/01/23 11:04:12;;;;;;;8.00;4.63;;;;;;;4.63;100.00;102477.63;4871644;29;20124;-82
2022/01/23 11:06:56;;;;;;;4.97;3.50;;;;;;;4.64;100.00;102474.16;4871855;29;20049;-80
2022/01/23 11:09:28;;;;;;;8.30;3.80;;;;;;;4.69;100.00;102479.50;4863216;29;20062;-82
2022/01/23 11:12:02;;;;;;;7.27;4.00;;;;;;;4.68;100.00;102481.25;4852967;29;20049;-79
2022/01/23 11:17:22;;;;;;;7.57;4.60;;;;;;;4.72;100.00;102477.03;4872499;29;20105;-83
2022/01/23 11:19:51;;;;;;;5.97;3.93;;;;;;;4.71;100.00;102481.38;4857112;29;20399;-82
2022/01/23 11:22:23;;;;;;;7.67;4.60;;;;;;;4.74;100.00;102467.47;4865241;29;20123;-82
2022/01/23 11:24:51;;;;;;;7.50;4.97;;;;;;;4.74;100.00;102465.75;4861121;29;20081;-83
2022/01/23 11:27:20;;;;;;;8.27;5.97;;;;;;;4.74;100.00;102462.25;4846413;29;20045;-79
2022/01/23 11:30:10;;;;;;;7.80;5.47;;;;;;;4.69;100.00;102466.44;4851187;29;20052;-81
2022/01/23 11:32:40;;;;;;;6.70;4.13;;;;;;;4.75;100.00;102464.00;4857648;29;20056;-81
2022/01/23 11:35:12;;;;;;;8.07;4.07;;;;;;;4.76;100.00;102465.78;4856574;29;20051;-82
2022/01/23 11:37:48;;;;;;;5.03;3.23;;;;;;;4.76;100.00;102463.16;4854767;29;20104;-84
2022/01/23 11:54:44;;;;;;;5.23;2.77;;;;;;;4.85;100.00;102494.88;4869303;29;20498;-83
2022/01/23 11:57:36;;;;;;;5.03;3.03;;;;;;;4.88;100.00;102489.78;4861700;29;20060;-83
2022/01/23 12:00:21;;;;;;;4.93;3.43;;;;;;;4.88;100.00;102481.91;4857139;29;20417;-82
2022/01/23 12:03:27;;;;;;;4.38;2.72;;;;;;;4.91;100.00;102482.00;4854888;29;20452;-83
2022/01/23 12:06:11;;;;;;;5.03;2.93;;;;;;;4.91;100.00;102479.38;4786398;29;20050;-82
2022/01/23 12:08:38;;;;;;;4.80;2.78;;;;;;;4.93;100.00;102485.53;4805088;29;20055;-82
2022/01/23 12:11:39;;;;;;;7.93;3.93;;;;;;;4.98;100.00;102483.97;4840988;29;20305;-82
2022/01/23 12:17:10;;;;;;;3.97;2.87;;;;;;;5.07;100.00;102481.63;4855494;29;20038;-82
2022/01/23 12:19:42;;;;;;;4.70;2.50;;;;;;;5.13;100.00;102477.41;4843478;29;20044;-81
2022/01/23 12:22:40;;;;;;;5.40;2.53;;;;;;;5.13;100.00;102477.41;4841211;29;20033;-81
2022/01/23 12:25:17;;;;;;;3.67;2.30;;;;;;;5.17;100.00;102484.53;4858484;29;20049;-83
2022/01/23 12:27:43;;;;;;;3.80;2.77;;;;;;;5.18;100.00;102481.97;4824793;29;20045;-81
2022/01/23 12:30:22;;;;;;;9.20;5.97;;;;;;;5.19;100.00;102478.50;4826364;29;20058;-83
2022/01/23 12:33:11;;;;;;;12.50;7.83;;;;;;;5.22;100.00;102477.72;4855780;29;20064;-81
2022/01/23 12:35:40;;;;;;;8.40;3.13;;;;;;;5.26;100.00;102471.72;4866587;29;20653;-81
2022/01/23 12:38:13;;;;;;;5.80;3.10;;;;;;;5.31;100.00;102471.03;4842324;29;20041;-82
2022/01/23 12:40:45;;;;;;;3.83;2.50;;;;;;;5.34;100.00;102475.47;4877552;29;20140;-81
2022/01/23 12:43:26;;;;;;;3.10;2.20;;;;;;;5.41;100.00;102471.28;4850569;29;20050;-82
2022/01/23 12:45:57;;;;;;;2.80;1.90;;;;;;;5.46;100.00;102474.91;4865721;29;20113;-83
2022/01/23 12:48:24;;;;;;;2.60;2.00;;;;;;;5.41;100.00;102469.56;4868507;29;20094;-82
2022/01/23 12:50:56;;;;;;;2.50;1.90;;;;;;;5.42;100.00;102470.44;4894109;29;20553;-83
2022/01/23 12:53:47;;;;;;;2.70;1.50;;;;;;;5.37;100.00;102470.28;4857403;29;20049;-82
2022/01/23 12:56:24;;;;;;;3.23;1.60;;;;;;;5.34;100.00;102465.88;4876643;29;20049;-80
2022/01/23 12:58:55;;;;;;;2.30;1.60;;;;;;;5.30;100.00;102469.25;4863856;29;20041;-82
2022/01/23 13:01:24;;;;;;;1.90;1.40;;;;;;;5.36;100.00;102471.16;4879204;29;20394;-82
2022/01/23 13:03:52;;;;;;;2.67;1.57;;;;;;;5.33;100.00;102474.56;4848289;29;20141;-81
2022/01/23 13:06:30;;;;;;;3.50;1.70;;;;;;;5.25;100.00;102483.94;4868202;29;20056;-80
2022/01/23 13:12:14;;;;;;;2.23;1.33;;;;;;;5.24;100.00;102483.91;4853952;29;20050;-82
2022/01/23 13:17:44;;;;;;;2.50;1.70;;;;;;;5.22;100.00;102483.84;4873814;29;20060;-82
2022/01/23 13:31:52;;;;;;;1.93;1.33;;;;;;;5.19;100.00;102503.81;4844840;29;20331;-84
2022/01/23 13:34:20;;;;;;;2.57;1.60;;;;;;;5.16;100.00;102501.09;4869746;29;20045;-81
2022/01/23 13:37:20;;;;;;;2.70;1.77;;;;;;;5.23;100.00;102503.09;4870559;29;20051;-82
2022/01/23 13:39:55;;;;;;;2.00;1.70;;;;;;;5.27;100.00;102508.44;4850651;29;20049;-82
2022/01/23 13:59:51;;;;;;;2.50;1.70;;;;;;;5.17;100.00;102506.38;4861107;29;20464;-83
2022/01/23 14:02:26;;;;;;;2.87;2.00;;;;;;;5.20;100.00;102503.84;4859365;29;20514;-82
2022/01/23 14:05:03;;;;;;;;;;;;;;;5.16;100.00;102506.34;4853342;29;20049;-81
2022/01/23 14:07:30;;;;;;;2.93;2.13;;;;;;;5.09;100.00;102506.16;4851944;29;19930;-82
2022/01/23 14:10:04;;;;;;;4.47;3.27;;;;;;;5.08;100.00;102507.00;4832551;29;20109;-84
2022/01/23 14:12:31;;;;;;;;;;;;;;;5.06;100.00;102500.81;4841805;29;20041;-83
2022/01/23 14:15:21;;;;;;;2.97;2.00;;;;;;;5.07;100.00;102502.59;4851003;29;20429;-83
2022/01/23 14:18:02;;;;;;;3.60;2.13;;;;;;;5.08;100.00;102493.00;4855885;29;20162;-84
2022/01/23 14:20:31;;;;;;;2.83;2.13;;;;;;;5.09;100.00;102495.66;4887714;29;20084;-82
2022/01/23 14:22:59;;;;;;;3.87;2.27;;;;;;;5.10;100.00;102483.47;4850585;29;20041;-82
2022/01/23 14:25:27;;;;;;;3.30;2.20;;;;;;;5.09;100.00;102479.94;4857979;29;20053;-80
2022/01/23 14:28:05;;;;;;;3.40;2.47;;;;;;;5.16;100.00;102485.38;4856308;29;20041;-81
2022/01/23 14:30:33;;;;;;;3.60;2.80;;;;;;;5.12;100.00;102475.63;4851082;29;20101;-80
2022/01/23 14:33:11;;;;;;;4.10;2.60;;;;;;;5.13;100.00;102482.66;4869707;29;20053;-81
2022/01/23 14:35:38;;;;;;;3.83;2.70;;;;;;;5.22;100.00;102496.06;4877974;29;20049;-82
2022/01/23 14:38:12;;;;;;;3.67;2.60;;;;;;;5.18;100.00;102497.69;4877711;29;20029;-81
2022/01/23 14:40:51;;;;;;;2.80;2.30;;;;;;;5.14;100.00;102495.81;4868511;29;20040;-82
2022/01/23 14:43:18;;;;;;;3.30;2.27;;;;;;;5.14;100.00;102494.94;4869822;29;20045;-83
2022/01/23 14:45:47;;;;;;;3.43;2.30;;;;;;;5.09;100.00;102495.66;4850913;29;20057;-82
2022/01/23 14:48:16;;;;;;;3.83;2.10;;;;;;;5.07;100.00;102497.34;4843500;29;20036;-82
2022/01/23 14:50:46;;;;;;;2.80;1.93;;;;;;;5.06;100.00;102508.69;4861060;29;20047;-82
2022/01/23 14:53:15;;;;;;;3.77;2.07;;;;;;;5.05;100.00;102503.41;4892426;29;20045;-83
2022/01/23 14:55:48;;;;;;;3.17;2.10;;;;;;;5.04;100.00;102512.06;4851503;29;20050;-82
2022/01/23 14:58:20;;;;;;;3.00;2.20;;;;;;;5.07;100.00;102506.94;4860424;29;20046;-81
2022/01/23 15:00:49;;;;;;;4.10;2.27;;;;;;;5.01;100.00;102514.59;4868886;29;20056;-81
2022/01/23 15:03:18;;;;;;;3.07;2.37;;;;;;;5.01;100.00;102523.34;4857687;29;20049;-81
2022/01/23 15:05:45;;;;;;;3.23;2.30;;;;;;;4.99;100.00;102530.28;4838363;29;20049;-79